Time;durP1;ratioP1;P1;durP2;ratioP2;P2;SDS_P1;SDS_P2;PMS_P1;PMS_P2;Temp;Humidity;BMP_temperature;BMP_pressure;BME280_temperature;BME280_humidity;BME280_pressure;Samples;Min_cycle;Max_cycle;Signal;HPM_P1;HPM_P2
2021/01/21 00:02:21;;;;;;;2.05;0.50;;;8.50;37.20;;;;;;5081525;28;20059;-71
2021/01/21 00:04:46;;;;;;;0.77;0.50;;;8.60;37.20;;;;;;5093333;28;20036;-72
2021/01/21 00:07:12;;;;;;;1.13;0.63;;;8.60;37.30;;;;;;5093264;28;20024;-71
2021/01/21 00:09:37;;;;;;;0.70;0.43;;;8.60;37.30;;;;;;5088863;28;20037;-73
2021/01/21 00:12:03;;;;;;;1.00;0.50;;;8.60;37.60;;;;;;5076097;28;20033;-73
2021/01/21 00:14:29;;;;;;;0.63;0.50;;;8.50;37.90;;;;;;5075278;28;20033;-73
2021/01/21 00:16:54;;;;;;;1.92;0.63;;;8.40;38.40;;;;;;5078013;28;20035;-72
2021/01/21 00:19:20;;;;;;;1.85;0.77;;;8.20;38.80;;;;;;5074878;28;20023;-71
2021/01/21 00:21:46;;;;;;;0.50;0.40;;;8.10;39.20;;;;;;5074210;28;20107;-72
2021/01/21 00:24:11;;;;;;;6.50;0.68;;;8.10;39.50;;;;;;5074457;28;20039;-73
2021/01/21 00:26:37;;;;;;;1.25;0.80;;;8.10;39.60;;;;;;5074249;28;20541;-72
2021/01/21 00:29:03;;;;;;;1.30;0.55;;;8.10;39.90;;;;;;5074364;28;20544;-75
2021/01/21 00:31:28;;;;;;;0.70;0.30;;;8.00;40.10;;;;;;5074210;28;20040;-73
2021/01/21 00:33:54;;;;;;;1.08;0.47;;;7.90;40.60;;;;;;5074098;28;20024;-74
2021/01/21 00:36:19;;;;;;;3.17;0.77;;;7.90;40.90;;;;;;5074181;28;20029;-74
2021/01/21 00:38:45;;;;;;;0.90;0.63;;;7.80;41.20;;;;;;5074140;28;20093;-74
2021/01/21 00:41:10;;;;;;;5.55;1.08;;;7.80;41.40;;;;;;5073996;28;20129;-73
2021/01/21 00:43:36;;;;;;;1.23;0.52;;;7.80;41.50;;;;;;5074028;28;20035;-73
2021/01/21 00:46:02;;;;;;;3.22;0.77;;;7.80;41.50;;;;;;5073976;28;20404;-74
2021/01/21 00:48:27;;;;;;;1.88;0.68;;;7.80;41.80;;;;;;5073911;28;20068;-72
2021/01/21 00:50:53;;;;;;;2.58;0.50;;;7.70;42.20;;;;;;5073714;28;20044;-73
2021/01/21 00:53:19;;;;;;;1.95;0.82;;;7.80;42.20;;;;;;5072611;28;20103;-73
2021/01/21 00:55:45;;;;;;;1.33;0.57;;;7.80;41.90;;;;;;5073358;28;20033;-73
2021/01/21 00:58:10;;;;;;;2.40;0.85;;;7.90;41.80;;;;;;5073747;28;20025;-75
2021/01/21 01:00:36;;;;;;;3.15;1.00;;;8.00;41.60;;;;;;5073633;28;20053;-73
2021/01/21 01:03:05;;;;;;;1.30;0.70;;;7.90;41.40;;;;;;5073506;28;20020;-73
2021/01/21 01:05:31;;;;;;;2.58;0.85;;;7.90;41.30;;;;;;5073624;28;20111;-73
2021/01/21 01:07:56;;;;;;;5.07;1.08;;;7.80;41.30;;;;;;5073501;28;20112;-73
2021/01/21 01:10:22;;;;;;;1.67;0.80;;;7.80;41.30;;;;;;5073483;28;20187;-74
2021/01/21 01:12:47;;;;;;;1.13;0.90;;;7.60;41.50;;;;;;5073406;28;20025;-73
2021/01/21 01:15:14;;;;;;;2.13;0.90;;;7.80;41.20;;;;;;5073508;28;20524;-72
2021/01/21 01:17:40;;;;;;;1.65;0.80;;;7.70;41.00;;;;;;5072434;28;20025;-73
2021/01/21 01:20:06;;;;;;;2.80;0.85;;;7.80;40.70;;;;;;5074677;28;20028;-73
2021/01/21 01:22:32;;;;;;;1.63;0.70;;;7.80;40.70;;;;;;5074979;28;20029;-73
2021/01/21 01:24:57;;;;;;;2.60;1.05;;;7.90;40.50;;;;;;5075214;28;20021;-73
2021/01/21 01:27:23;;;;;;;1.35;0.65;;;7.90;40.50;;;;;;5072929;28;20481;-75
2021/01/21 01:29:48;;;;;;;0.95;0.50;;;7.80;40.40;;;;;;5073132;28;20028;-75
2021/01/21 01:32:14;;;;;;;2.10;0.73;;;8.00;40.00;;;;;;5074200;28;20542;-73
2021/01/21 01:34:40;;;;;;;0.85;0.60;;;8.00;39.90;;;;;;5073291;28;20024;-75
2021/01/21 01:37:05;;;;;;;3.63;0.77;;;8.00;39.90;;;;;;5073236;28;20024;-74
2021/01/21 01:39:31;;;;;;;1.60;0.40;;;8.00;39.70;;;;;;5073023;28;20032;-78
2021/01/21 01:41:57;;;;;;;2.08;0.77;;;8.10;39.80;;;;;;5073053;28;20077;-74
2021/01/21 01:44:23;;;;;;;1.35;0.70;;;8.20;39.40;;;;;;5073156;28;20040;-73
2021/01/21 01:46:48;;;;;;;1.27;0.68;;;8.30;39.20;;;;;;5073117;28;20081;-73
2021/01/21 01:49:14;;;;;;;1.67;0.68;;;8.30;39.60;;;;;;5073081;28;20032;-73
2021/01/21 01:51:43;;;;;;;0.98;0.60;;;8.30;38.90;;;;;;5073092;28;20020;-74
2021/01/21 01:54:10;;;;;;;1.38;0.73;;;8.10;39.10;;;;;;5073071;28;20414;-72
2021/01/21 01:56:35;;;;;;;1.05;0.57;;;8.10;39.20;;;;;;5073263;28;20035;-72
2021/01/21 01:59:01;;;;;;;0.75;0.57;;;8.10;39.30;;;;;;5072889;28;20349;-73
2021/01/21 02:01:28;;;;;;;1.95;0.60;;;8.10;39.40;;;;;;5072926;28;20048;-74
2021/01/21 02:03:53;;;;;;;0.90;0.50;;;8.10;39.50;;;;;;5072917;28;20043;-73
2021/01/21 02:06:19;;;;;;;0.98;0.60;;;8.10;39.60;;;;;;5072939;28;20369;-75
2021/01/21 02:08:45;;;;;;;0.80;0.52;;;8.10;39.70;;;;;;5075150;28;20027;-73
2021/01/21 02:11:42;;;;;;;2.08;0.73;;;8.10;39.70;;;;;;5076883;28;20485;-75
2021/01/21 02:14:31;;;;;;;3.78;0.85;;;8.00;39.70;;;;;;5076221;28;20036;-72
2021/01/21 02:17:04;;;;;;;1.92;0.75;;;8.10;39.90;;;;;;5076818;28;20078;-72
2021/01/21 02:19:48;;;;;;;1.55;0.60;;;8.20;39.80;;;;;;5077026;28;20025;-74
2021/01/21 02:22:32;;;;;;;3.65;0.68;;;8.30;39.70;;;;;;5076668;28;20028;-72
2021/01/21 02:25:15;;;;;;;1.00;0.70;;;8.30;39.70;;;;;;5076671;28;20025;-72
2021/01/21 02:28:09;;;;;;;1.65;0.50;;;8.40;39.40;;;;;;5076487;28;20187;-73
2021/01/21 02:31:02;;;;;;;0.95;0.63;;;8.40;39.30;;;;;;5076484;28;20040;-72
2021/01/21 02:33:53;;;;;;;0.68;0.60;;;8.40;39.20;;;;;;5076742;28;20016;-73
2021/01/21 02:36:23;;;;;;;1.48;0.55;;;8.30;39.40;;;;;;5076403;28;20021;-73
2021/01/21 02:38:52;;;;;;;1.65;0.65;;;8.30;39.50;;;;;;5076372;28;20424;-73
2021/01/21 02:41:17;;;;;;;1.90;0.93;;;8.30;39.30;;;;;;5076305;28;20025;-75
2021/01/21 02:43:51;;;;;;;3.03;0.80;;;8.30;39.50;;;;;;5076397;28;20526;-79
2021/01/21 02:46:17;;;;;;;0.80;0.70;;;8.20;39.40;;;;;;5075158;28;20028;-84
2021/01/21 02:48:42;;;;;;;2.92;0.63;;;8.20;39.60;;;;;;5076237;28;20016;-81
2021/01/21 02:51:23;;;;;;;1.27;0.95;;;8.30;39.50;;;;;;5076221;28;20404;-73
2021/01/21 02:54:01;;;;;;;1.20;0.85;;;8.30;39.40;;;;;;5076490;28;20017;-82
2021/01/21 02:56:27;;;;;;;2.75;0.90;;;8.30;39.50;;;;;;5076303;28;20134;-73
2021/01/21 02:58:56;;;;;;;0.93;0.70;;;8.20;39.70;;;;;;5076165;28;20024;-82
2021/01/21 03:01:22;;;;;;;1.38;0.70;;;8.20;39.90;;;;;;5076088;28;20151;-74
2021/01/21 03:03:48;;;;;;;2.50;0.55;;;8.10;40.40;;;;;;5076025;28;20048;-82
2021/01/21 03:06:16;;;;;;;1.25;0.82;;;8.00;41.00;;;;;;5075975;28;20028;-76
2021/01/21 03:08:42;;;;;;;1.27;0.70;;;7.90;41.50;;;;;;5076095;28;20067;-75
2021/01/21 03:11:09;;;;;;;6.72;1.48;;;7.90;41.60;;;;;;5075846;28;20505;-83
2021/01/21 03:13:34;;;;;;;1.40;0.70;;;7.90;41.70;;;;;;5076149;28;20017;-80
2021/01/21 03:16:00;;;;;;;1.83;0.63;;;8.00;42.40;;;;;;5075707;28;20030;-77
2021/01/21 03:18:26;;;;;;;0.95;0.57;;;8.10;41.50;;;;;;5075588;28;20052;-76
2021/01/21 03:20:51;;;;;;;2.08;0.75;;;8.20;41.40;;;;;;5075641;28;20025;-79
2021/01/21 03:23:17;;;;;;;3.70;0.55;;;8.10;41.50;;;;;;5075658;28;20032;-74
2021/01/21 03:25:43;;;;;;;1.02;0.70;;;8.10;41.70;;;;;;5074304;28;20025;-83
2021/01/21 03:28:09;;;;;;;1.30;0.90;;;8.00;41.80;;;;;;5075599;28;20496;-83
2021/01/21 03:30:35;;;;;;;1.75;0.40;;;8.00;41.90;;;;;;5075597;28;20040;-80
2021/01/21 03:33:00;;;;;;;1.80;0.73;;;8.00;42.20;;;;;;5075635;28;20112;-77
2021/01/21 03:35:26;;;;;;;3.28;0.57;;;8.00;42.30;;;;;;5075569;28;20508;-76
2021/01/21 03:37:52;;;;;;;4.90;0.90;;;7.80;42.60;;;;;;5075233;28;20017;-79
2021/01/21 03:40:18;;;;;;;1.00;0.77;;;7.70;43.10;;;;;;5075351;28;20020;-82
2021/01/21 03:42:43;;;;;;;0.77;0.60;;;7.70;43.30;;;;;;5075328;28;20030;-78
2021/01/21 03:45:09;;;;;;;1.95;0.63;;;7.60;43.60;;;;;;5075279;28;20368;-79
2021/01/21 03:47:35;;;;;;;2.05;0.80;;;7.70;43.70;;;;;;5075300;28;20099;-79
2021/01/21 03:50:00;;;;;;;2.20;0.80;;;7.70;43.80;;;;;;5075003;28;20120;-82
2021/01/21 03:52:26;;;;;;;1.77;0.55;;;7.70;43.80;;;;;;5074909;28;20095;-73
2021/01/21 03:54:51;;;;;;;1.75;0.68;;;7.70;44.10;;;;;;5075113;28;20125;-73
2021/01/21 03:57:17;;;;;;;0.95;0.70;;;7.70;43.90;;;;;;5075294;28;20028;-79
2021/01/21 03:59:42;;;;;;;1.95;0.75;;;7.70;43.70;;;;;;5075097;28;20032;-76
2021/01/21 04:02:08;;;;;;;0.80;0.40;;;7.90;43.50;;;;;;5074952;28;20044;-76
2021/01/21 04:04:33;;;;;;;3.42;0.85;;;7.90;43.40;;;;;;5076247;28;20029;-77
2021/01/21 04:06:59;;;;;;;2.13;0.88;;;7.90;43.10;;;;;;5075547;28;20032;-76
2021/01/21 04:09:24;;;;;;;1.48;0.43;;;8.00;42.90;;;;;;5074834;28;20013;-74
2021/01/21 04:11:52;;;;;;;1.88;0.68;;;8.00;42.60;;;;;;5074877;28;20077;-78
2021/01/21 04:14:17;;;;;;;0.50;0.40;;;8.10;42.60;;;;;;5074801;28;20021;-81
2021/01/21 04:16:43;;;;;;;1.05;0.60;;;8.10;42.70;;;;;;5074932;28;20503;-76
2021/01/21 04:19:08;;;;;;;0.88;0.63;;;8.00;42.60;;;;;;5074567;28;20412;-74
2021/01/21 04:21:34;;;;;;;0.55;0.40;;;8.00;42.70;;;;;;5074399;28;20025;-77
2021/01/21 04:24:00;;;;;;;0.60;0.30;;;8.10;42.70;;;;;;5074526;28;20032;-80
2021/01/21 04:26:26;;;;;;;1.35;0.60;;;8.10;42.60;;;;;;5074471;28;20048;-80
2021/01/21 04:28:52;;;;;;;6.28;0.65;;;8.20;42.40;;;;;;5074491;28;20028;-74
2021/01/21 04:31:17;;;;;;;1.35;0.65;;;8.20;42.20;;;;;;5072149;28;20039;-75
2021/01/21 04:33:43;;;;;;;1.50;0.65;;;8.20;42.10;;;;;;5074457;28;20025;-78
2021/01/21 04:36:09;;;;;;;0.80;0.63;;;8.10;42.20;;;;;;5074319;28;20473;-82
2021/01/21 04:38:34;;;;;;;2.30;0.70;;;8.30;41.70;;;;;;5074340;28;20025;-78
2021/01/21 04:41:01;;;;;;;1.30;0.80;;;8.30;41.80;;;;;;5074098;28;20028;-79
2021/01/21 04:43:27;;;;;;;0.88;0.60;;;8.20;42.60;;;;;;5072869;28;20071;-79
2021/01/21 04:45:52;;;;;;;4.75;0.70;;;8.20;41.60;;;;;;5074005;28;20476;-78
2021/01/21 04:48:19;;;;;;;3.22;0.50;;;8.40;41.30;;;;;;5073933;28;20060;-73
2021/01/21 04:50:46;;;;;;;0.38;0.38;;;8.50;41.10;;;;;;5073940;28;20061;-82
2021/01/21 04:53:13;;;;;;;2.53;0.75;;;8.50;41.00;;;;;;5073961;28;20027;-76
2021/01/21 04:55:48;;;;;;;2.25;0.40;;;8.60;40.70;;;;;;5073604;28;20549;-81
2021/01/21 04:58:35;;;;;;;0.52;0.50;;;8.60;40.50;;;;;;5073789;28;20059;-77
2021/01/21 05:01:02;;;;;;;1.10;0.57;;;8.60;40.50;;;;;;5073482;28;20369;-75
2021/01/21 05:03:28;;;;;;;1.77;0.32;;;8.60;40.40;;;;;;5073929;28;20408;-74
2021/01/21 05:05:55;;;;;;;1.33;0.40;;;8.60;40.50;;;;;;5073558;28;20393;-81
2021/01/21 05:08:21;;;;;;;0.55;0.40;;;8.50;40.40;;;;;;5073713;28;20029;-77
2021/01/21 05:10:48;;;;;;;1.25;0.52;;;8.50;40.60;;;;;;5055593;28;20453;-80
2021/01/21 05:13:14;;;;;;;0.70;0.40;;;8.50;40.60;;;;;;5073993;28;20024;-78
2021/01/21 05:15:39;;;;;;;0.65;0.40;;;8.60;40.50;;;;;;5072352;28;20016;-72
2021/01/21 05:18:05;;;;;;;0.38;0.38;;;8.50;40.60;;;;;;5073303;28;20021;-73
2021/01/21 05:20:35;;;;;;;0.95;0.38;;;8.50;40.60;;;;;;5073231;28;20031;-72
2021/01/21 05:23:03;;;;;;;1.27;0.40;;;8.60;40.50;;;;;;5073356;28;20358;-73
2021/01/21 05:25:29;;;;;;;2.10;0.50;;;8.60;40.40;;;;;;5072025;28;20028;-75
2021/01/21 05:27:57;;;;;;;0.52;0.38;;;8.60;40.30;;;;;;5073040;28;20522;-72
2021/01/21 05:30:30;;;;;;;1.55;0.70;;;8.60;40.20;;;;;;5073283;28;20063;-73
2021/01/21 05:32:57;;;;;;;0.63;0.40;;;8.70;39.90;;;;;;5073350;28;20017;-72
2021/01/21 05:35:24;;;;;;;1.30;0.57;;;8.70;39.60;;;;;;5072335;28;20460;-73
2021/01/21 05:37:57;;;;;;;2.80;0.60;;;8.80;39.10;;;;;;5074022;28;20075;-73
2021/01/21 05:40:28;;;;;;;0.82;0.47;;;8.90;38.60;;;;;;5087330;28;20032;-72
2021/01/21 05:42:58;;;;;;;2.42;0.75;;;8.90;38.20;;;;;;5084264;28;20046;-72
2021/01/21 05:45:25;;;;;;;2.22;1.10;;;8.90;38.20;;;;;;5080730;28;20025;-72
2021/01/21 05:47:58;;;;;;;1.92;0.85;;;9.00;37.70;;;;;;5080806;28;20029;-73
2021/01/21 05:50:28;;;;;;;1.50;0.77;;;9.10;37.50;;;;;;5077286;28;20040;-73
2021/01/21 05:52:58;;;;;;;2.25;0.57;;;9.10;37.40;;;;;;5074279;28;20028;-72
2021/01/21 05:55:25;;;;;;;2.67;0.80;;;9.10;37.20;;;;;;5073281;28;20131;-72
2021/01/21 05:57:52;;;;;;;2.67;0.60;;;9.30;36.90;;;;;;5073554;28;20103;-73
2021/01/21 06:00:18;;;;;;;0.93;0.52;;;9.20;36.90;;;;;;5072990;28;20047;-73
2021/01/21 06:02:44;;;;;;;0.90;0.65;;;9.10;37.00;;;;;;5074262;28;20035;-73
2021/01/21 06:05:17;;;;;;;1.77;0.70;;;9.10;37.00;;;;;;5073825;28;20090;-76
2021/01/21 06:07:43;;;;;;;1.25;0.65;;;9.40;36.70;;;;;;5073596;28;20024;-73
2021/01/21 06:10:09;;;;;;;1.20;0.60;;;9.40;36.70;;;;;;5072989;28;20098;-75
2021/01/21 06:12:35;;;;;;;1.08;0.52;;;9.40;36.80;;;;;;5072908;28;20218;-73
2021/01/21 06:15:02;;;;;;;0.70;0.50;;;9.40;36.90;;;;;;5073036;28;20021;-76
2021/01/21 06:17:28;;;;;;;1.38;0.60;;;9.50;37.00;;;;;;5072921;28;20032;-77
2021/01/21 06:19:54;;;;;;;2.33;0.57;;;9.60;37.70;;;;;;5072857;28;20021;-76
2021/01/21 06:22:27;;;;;;;2.35;0.65;;;9.70;37.10;;;;;;5072966;28;20074;-81
2021/01/21 06:24:57;;;;;;;1.42;0.80;;;9.70;37.30;;;;;;5072726;28;20032;-78
2021/01/21 06:27:23;;;;;;;1.83;0.70;;;9.70;37.50;;;;;;5072833;28;20400;-80
2021/01/21 06:29:52;;;;;;;1.00;0.68;;;9.60;38.20;;;;;;5072514;28;20035;-77
2021/01/21 06:32:26;;;;;;;1.08;0.60;;;9.60;39.10;;;;;;5072482;28;20400;-75
2021/01/21 06:34:53;;;;;;;2.50;0.80;;;9.50;40.40;;;;;;5072632;28;20020;-74
2021/01/21 06:37:21;;;;;;;2.20;0.40;;;9.50;41.40;;;;;;5072450;28;20094;-74
2021/01/21 06:39:52;;;;;;;2.63;1.38;;;9.40;41.70;;;;;;5072701;28;20082;-81
2021/01/21 06:42:25;;;;;;;2.20;0.60;;;9.40;42.50;;;;;;5072881;28;20020;-72
2021/01/21 06:44:51;;;;;;;0.95;0.60;;;9.30;43.20;;;;;;5072873;28;20028;-78
2021/01/21 06:47:19;;;;;;;1.38;0.70;;;9.20;44.20;;;;;;5071436;28;20028;-76
2021/01/21 06:49:45;;;;;;;2.53;0.90;;;9.20;44.50;;;;;;5072497;28;20485;-74
2021/01/21 06:52:12;;;;;;;1.52;1.00;;;9.10;44.90;;;;;;5071264;28;20033;-74
2021/01/21 06:54:38;;;;;;;1.98;0.82;;;9.10;45.60;;;;;;5074272;28;20103;-77
2021/01/21 06:57:35;;;;;;;0.50;0.50;;;9.20;46.30;;;;;;5076365;28;20029;-76
2021/01/21 07:00:06;;;;;;;1.75;0.45;;;9.20;46.70;;;;;;5076048;28;20543;-79
2021/01/21 07:02:39;;;;;;;0.98;0.75;;;9.20;47.40;;;;;;5075862;28;20049;-72
2021/01/21 07:05:09;;;;;;;2.55;0.52;;;9.10;48.00;;;;;;5076048;28;20476;-78
2021/01/21 07:07:53;;;;;;;1.73;0.38;;;9.00;48.50;;;;;;5075936;28;20040;-78
2021/01/21 07:10:30;;;;;;;3.95;0.50;;;9.00;49.30;;;;;;5075731;28;20469;-79
2021/01/21 07:12:58;;;;;;;0.57;0.40;;;9.10;49.90;;;;;;5076000;28;20101;-80
2021/01/21 07:15:34;;;;;;;2.20;0.50;;;9.20;50.00;;;;;;5075951;28;20024;-75
2021/01/21 07:18:02;;;;;;;0.93;0.50;;;9.30;50.00;;;;;;5074516;28;20017;-73
2021/01/21 07:20:34;;;;;;;1.13;0.40;;;9.30;49.80;;;;;;5074506;28;20431;-79
2021/01/21 07:23:07;;;;;;;2.88;0.47;;;9.30;50.00;;;;;;5075346;28;20017;-72
2021/01/21 07:25:33;;;;;;;1.95;0.77;;;9.50;50.10;;;;;;5074096;28;20070;-73
2021/01/21 07:28:07;;;;;;;0.50;0.50;;;9.50;49.90;;;;;;5075514;28;20063;-73
2021/01/21 07:30:37;;;;;;;3.15;0.57;;;9.40;50.00;;;;;;5074062;28;20396;-73
2021/01/21 07:33:22;;;;;;;0.68;0.60;;;9.40;50.20;;;;;;5075282;28;20103;-76
2021/01/21 07:35:50;;;;;;;0.32;0.30;;;9.40;50.20;;;;;;5073847;28;20380;-78
2021/01/21 07:38:40;;;;;;;2.47;0.43;;;9.60;50.10;;;;;;5074094;28;20029;-79
2021/01/21 07:41:06;;;;;;;1.05;0.60;;;9.80;49.60;;;;;;5073881;28;20029;-79
2021/01/21 07:43:55;;;;;;;0.47;0.22;;;9.80;49.10;;;;;;5073602;28;20027;-79
2021/01/21 07:47:15;;;;;;;1.65;0.30;;;9.90;49.10;;;;;;5073657;28;20060;-79
2021/01/21 07:49:40;;;;;;;1.48;0.70;;;9.90;48.70;;;;;;5073562;28;20425;-80
2021/01/21 07:52:07;;;;;;;1.55;0.52;;;9.90;48.30;;;;;;5077241;28;20056;-80
2021/01/21 07:54:49;;;;;;;0.70;0.40;;;9.90;48.20;;;;;;5075609;28;20025;-77
2021/01/21 07:57:22;;;;;;;0.82;0.50;;;9.90;47.80;;;;;;5074463;28;20523;-78
2021/01/21 08:00:20;;;;;;;1.95;0.30;;;9.90;47.70;;;;;;5077303;28;20040;-77
2021/01/21 08:02:50;;;;;;;2.58;0.38;;;9.90;47.80;;;;;;5032686;28;20481;-77
2021/01/21 08:05:18;;;;;;;0.68;0.50;;;9.90;48.10;;;;;;5072975;28;20025;-77
2021/01/21 08:07:50;;;;;;;0.38;0.20;;;9.90;48.40;;;;;;5072312;28;20484;-77
2021/01/21 08:10:19;;;;;;;1.10;0.60;;;10.00;48.30;;;;;;5073460;28;20055;-77
2021/01/21 08:13:01;;;;;;;0.68;0.30;;;9.90;48.80;;;;;;5072855;28;20028;-76
2021/01/21 08:15:28;;;;;;;0.30;0.30;;;9.90;49.30;;;;;;5074188;28;20020;-74
2021/01/21 08:17:54;;;;;;;0.93;0.43;;;10.10;49.80;;;;;;5072913;28;20032;-73
2021/01/21 08:20:22;;;;;;;1.20;0.40;;;10.00;49.90;;;;;;5073101;28;20031;-74
2021/01/21 08:22:56;;;;;;;0.30;0.20;;;9.80;50.20;;;;;;5073136;28;20028;-74
2021/01/21 08:25:23;;;;;;;0.47;0.38;;;9.80;50.50;;;;;;5073248;28;20048;-73
2021/01/21 08:27:50;;;;;;;0.85;0.30;;;9.70;51.30;;;;;;5073176;28;20116;-74
2021/01/21 08:30:19;;;;;;;1.55;0.90;;;9.70;52.40;;;;;;5073082;28;20040;-74
2021/01/21 08:32:47;;;;;;;0.85;0.30;;;9.70;52.20;;;;;;5074121;28;20078;-73
2021/01/21 08:35:20;;;;;;;0.50;0.40;;;9.70;53.00;;;;;;5074676;28;20103;-73
2021/01/21 08:37:47;;;;;;;0.60;0.20;;;9.70;54.00;;;;;;5074618;28;20029;-75
2021/01/21 08:40:13;;;;;;;1.42;0.47;;;9.60;54.20;;;;;;5074189;28;20023;-77
2021/01/21 08:42:40;;;;;;;0.40;0.20;;;9.60;54.70;;;;;;5073044;28;20385;-76
2021/01/21 08:45:06;;;;;;;0.68;0.40;;;9.50;54.90;;;;;;5073922;28;20108;-74
2021/01/21 08:47:46;;;;;;;1.10;0.50;;;9.60;55.00;;;;;;5074057;28;20024;-77
2021/01/21 08:50:13;;;;;;;0.55;0.20;;;9.60;54.80;;;;;;5073773;28;20028;-81
2021/01/21 08:52:58;;;;;;;0.47;0.30;;;9.80;54.40;;;;;;5073959;28;20373;-74
2021/01/21 08:55:44;;;;;;;0.47;0.40;;;9.80;54.00;;;;;;5074010;28;20028;-75
2021/01/21 08:58:15;;;;;;;0.30;0.20;;;9.90;53.60;;;;;;5073868;28;20111;-74
2021/01/21 09:01:04;;;;;;;0.50;0.32;;;10.00;53.10;;;;;;5073427;28;20032;-74
2021/01/21 09:03:50;;;;;;;1.23;0.45;;;10.20;52.50;;;;;;5061911;28;20032;-73
2021/01/21 09:06:21;;;;;;;0.68;0.35;;;10.10;52.40;;;;;;5073688;28;20381;-74
2021/01/21 09:08:57;;;;;;;0.20;0.20;;;10.10;52.50;;;;;;5073680;28;20036;-74
2021/01/21 09:11:38;;;;;;;0.28;0.10;;;10.10;52.40;;;;;;5073373;28;20029;-74
2021/01/21 09:14:06;;;;;;;0.22;0.22;;;10.10;52.20;;;;;;5073431;28;20115;-73
2021/01/21 09:16:54;;;;;;;1.33;0.30;;;10.10;52.10;;;;;;5072859;28;20021;-80
2021/01/21 09:19:25;;;;;;;0.50;0.30;;;10.10;52.00;;;;;;5073578;28;20447;-74
2021/01/21 09:22:04;;;;;;;0.32;0.32;;;10.10;52.00;;;;;;5072224;28;20127;-78
2021/01/21 09:24:31;;;;;;;0.52;0.20;;;10.30;51.80;;;;;;5073513;28;20422;-74
2021/01/21 09:27:12;;;;;;;1.27;0.30;;;10.50;51.20;;;;;;5078630;28;20025;-75
2021/01/21 09:29:53;;;;;;;0.80;0.30;;;10.60;50.70;;;;;;5078826;28;20016;-74
2021/01/21 09:32:24;;;;;;;2.15;0.30;;;10.70;50.30;;;;;;5074795;28;20476;-78
2021/01/21 09:34:54;;;;;;;0.73;0.32;;;10.80;49.80;;;;;;5074098;28;20024;-75
2021/01/21 09:37:20;;;;;;;1.63;0.47;;;10.80;50.50;;;;;;5073520;28;20036;-78
2021/01/21 09:39:47;;;;;;;0.90;0.35;;;10.80;49.50;;;;;;5073618;28;20081;-76
2021/01/21 09:42:12;;;;;;;0.25;0.25;;;10.90;49.60;;;;;;5073685;28;20035;-79
2021/01/21 09:44:38;;;;;;;0.57;0.20;;;11.00;49.10;;;;;;5073339;28;20024;-78
2021/01/21 09:47:03;;;;;;;0.90;0.30;;;11.10;48.80;;;;;;5071970;28;20029;-81
2021/01/21 09:49:29;;;;;;;0.47;0.20;;;11.20;48.50;;;;;;5073192;28;20031;-78
2021/01/21 09:51:54;;;;;;;0.73;0.40;;;11.20;48.50;;;;;;5071790;28;20043;-78
2021/01/21 09:54:20;;;;;;;0.40;0.20;;;11.40;48.30;;;;;;5073413;28;20452;-74
2021/01/21 09:56:46;;;;;;;1.40;0.40;;;11.40;48.00;;;;;;5072873;28;20439;-76
2021/01/21 09:59:12;;;;;;;0.57;0.30;;;11.50;47.80;;;;;;5073005;28;20025;-73
2021/01/21 10:01:37;;;;;;;0.50;0.35;;;11.50;47.70;;;;;;5072780;28;20132;-76
2021/01/21 10:04:03;;;;;;;2.05;0.20;;;11.60;47.30;;;;;;5071508;28;20350;-78
2021/01/21 10:06:29;;;;;;;0.20;0.20;;;11.60;47.00;;;;;;5071557;28;20422;-76
2021/01/21 10:08:54;;;;;;;1.52;0.40;;;11.50;47.10;;;;;;5073099;28;20035;-77
2021/01/21 10:11:20;;;;;;;0.85;0.35;;;11.60;47.20;;;;;;5071696;28;20439;-78
2021/01/21 10:13:45;;;;;;;0.40;0.22;;;11.60;46.90;;;;;;5071834;28;20484;-78
2021/01/21 10:16:11;;;;;;;0.65;0.30;;;11.60;46.90;;;;;;5072860;28;20032;-77
2021/01/21 10:18:36;;;;;;;0.88;0.45;;;11.50;47.30;;;;;;5072820;28;20025;-79
2021/01/21 10:21:02;;;;;;;0.10;0.10;;;11.60;47.60;;;;;;5072879;28;20024;-74
2021/01/21 10:23:28;;;;;;;0.45;0.30;;;11.60;47.40;;;;;;5072451;28;20032;-82
2021/01/21 10:25:53;;;;;;;0.50;0.40;;;11.70;47.50;;;;;;5072727;28;20051;-78
2021/01/21 10:28:20;;;;;;;1.85;0.20;;;11.80;47.00;;;;;;5072712;28;20096;-78
2021/01/21 10:30:52;;;;;;;0.28;0.17;;;11.90;46.70;;;;;;5076963;28;20043;-76
2021/01/21 10:33:18;;;;;;;1.15;0.30;;;12.00;46.30;;;;;;5077282;28;20510;-78
2021/01/21 10:35:45;;;;;;;0.52;0.40;;;11.90;46.10;;;;;;5076851;28;20035;-75
2021/01/21 10:38:11;;;;;;;2.80;0.57;;;12.10;46.00;;;;;;5076706;28;20028;-77
2021/01/21 10:40:38;;;;;;;0.20;0.20;;;12.10;45.80;;;;;;5076803;28;20461;-75
2021/01/21 10:43:03;;;;;;;0.82;0.40;;;12.20;45.40;;;;;;5075415;28;20480;-77
2021/01/21 10:45:29;;;;;;;0.43;0.32;;;12.20;45.20;;;;;;5076515;28;20035;-81
2021/01/21 10:47:55;;;;;;;0.75;0.28;;;12.20;45.30;;;;;;5076252;28;20025;-76
2021/01/21 10:50:20;;;;;;;0.75;0.20;;;12.10;45.50;;;;;;5076195;28;20032;-78
2021/01/21 10:52:46;;;;;;;0.98;0.32;;;12.10;45.70;;;;;;5076307;28;20028;-77
2021/01/21 10:55:12;;;;;;;0.82;0.30;;;12.40;45.50;;;;;;5076000;28;20370;-79
2021/01/21 10:57:38;;;;;;;2.47;0.30;;;12.40;45.30;;;;;;5074791;28;20035;-75
2021/01/21 11:00:05;;;;;;;1.38;0.40;;;12.30;45.40;;;;;;5076367;28;20048;-77
2021/01/21 11:02:30;;;;;;;1.15;0.52;;;12.30;45.60;;;;;;5076277;28;20072;-77
2021/01/21 11:04:56;;;;;;;1.60;0.47;;;12.30;45.70;;;;;;5076165;28;20070;-82
2021/01/21 11:07:21;;;;;;;2.17;0.30;;;12.30;45.60;;;;;;5076730;28;20082;-83
2021/01/21 11:09:47;;;;;;;0.65;0.40;;;12.40;45.70;;;;;;5076259;28;20142;-79
2021/01/21 11:12:15;;;;;;;0.95;0.30;;;12.40;45.70;;;;;;5076352;28;20028;-74
2021/01/21 11:14:40;;;;;;;1.30;0.30;;;12.40;45.70;;;;;;5075685;28;20048;-79
2021/01/21 11:17:06;;;;;;;0.43;0.20;;;12.30;46.00;;;;;;5076478;28;20334;-79
2021/01/21 11:19:31;;;;;;;0.30;0.20;;;12.30;46.50;;;;;;5076507;28;20033;-76
2021/01/21 11:21:57;;;;;;;0.93;0.20;;;12.50;46.60;;;;;;5076403;28;20032;-79
2021/01/21 11:24:23;;;;;;;0.40;0.40;;;12.50;46.40;;;;;;5076337;28;20040;-82
2021/01/21 11:26:48;;;;;;;1.17;0.30;;;12.50;46.40;;;;;;5076499;28;20030;-82
2021/01/21 11:29:14;;;;;;;0.75;0.32;;;12.40;46.30;;;;;;5077521;28;20537;-76
2021/01/21 11:31:40;;;;;;;1.13;0.30;;;12.70;45.90;;;;;;5077322;28;20032;-76
2021/01/21 11:34:05;;;;;;;1.17;0.30;;;12.80;45.20;;;;;;5077344;28;20021;-80
2021/01/21 11:36:31;;;;;;;0.60;0.30;;;13.00;44.90;;;;;;5078304;28;20028;-84
2021/01/21 11:38:57;;;;;;;0.75;0.38;;;13.00;44.50;;;;;;5081217;28;20101;-75
2021/01/21 11:41:23;;;;;;;1.30;0.35;;;12.90;44.50;;;;;;5081765;28;20457;-79
2021/01/21 11:43:49;;;;;;;0.30;0.20;;;13.00;44.40;;;;;;5082002;28;20060;-76
2021/01/21 11:46:15;;;;;;;2.30;0.40;;;13.10;44.20;;;;;;5096363;28;20032;-74
2021/01/21 11:48:40;;;;;;;1.63;0.30;;;13.10;44.10;;;;;;5096676;28;20009;-74
2021/01/21 11:51:06;;;;;;;1.67;0.20;;;13.10;43.90;;;;;;5096345;28;20040;-78
2021/01/21 11:53:33;;;;;;;0.60;0.30;;;13.40;43.90;;;;;;5096028;28;20029;-76
2021/01/21 11:55:58;;;;;;;1.10;0.50;;;13.40;43.50;;;;;;5094086;28;20166;-76
2021/01/21 11:58:24;;;;;;;0.82;0.43;;;13.20;43.70;;;;;;5080222;28;20060;-76
2021/01/21 12:00:50;;;;;;;0.38;0.20;;;12.90;44.10;;;;;;5078506;28;20049;-76
2021/01/21 12:03:16;;;;;;;0.20;0.20;;;13.10;44.50;;;;;;5078552;28;20489;-77
2021/01/21 12:05:43;;;;;;;0.30;0.20;;;13.30;45.10;;;;;;5075660;28;20136;-75
2021/01/21 12:08:08;;;;;;;0.10;0.10;;;12.90;44.50;;;;;;5074976;28;20021;-75
2021/01/21 12:10:34;;;;;;;0.75;0.30;;;12.50;45.20;;;;;;5073427;28;20465;-75
2021/01/21 12:12:59;;;;;;;0.40;0.30;;;11.90;46.60;;;;;;5074716;28;20024;-75
2021/01/21 12:15:25;;;;;;;0.60;0.30;;;11.70;47.90;;;;;;5073880;28;20126;-77
2021/01/21 12:17:50;;;;;;;0.77;0.30;;;11.50;48.90;;;;;;5073395;28;20020;-74
2021/01/21 12:20:17;;;;;;;0.55;0.30;;;11.50;49.60;;;;;;5073295;28;20156;-76
2021/01/21 12:22:42;;;;;;;0.43;0.17;;;11.30;50.10;;;;;;5074592;28;20029;-77
2021/01/21 12:25:09;;;;;;;1.23;0.17;;;11.30;50.70;;;;;;5074595;28;20043;-76
2021/01/21 12:27:34;;;;;;;0.20;0.20;;;11.40;50.90;;;;;;5074293;28;20078;-75
2021/01/21 12:30:00;;;;;;;0.60;0.30;;;11.60;50.70;;;;;;5074337;28;20060;-75
2021/01/21 12:32:25;;;;;;;2.17;0.20;;;12.40;49.70;;;;;;5074423;28;20033;-76
2021/01/21 12:34:51;;;;;;;1.02;0.32;;;12.80;48.50;;;;;;5074228;28;20021;-77
2021/01/21 12:37:16;;;;;;;0.77;0.30;;;13.20;47.20;;;;;;5074440;28;20021;-76
2021/01/21 12:39:42;;;;;;;0.30;0.20;;;13.40;46.90;;;;;;5074309;28;20028;-74
2021/01/21 12:42:07;;;;;;;1.13;0.40;;;13.20;46.70;;;;;;5074123;28;20035;-75
2021/01/21 12:44:33;;;;;;;0.38;0.30;;;13.50;46.50;;;;;;5073705;28;20025;-75
2021/01/21 12:46:59;;;;;;;1.40;0.60;;;13.20;46.60;;;;;;5073803;28;20588;-74
2021/01/21 12:49:24;;;;;;;2.13;0.50;;;12.50;47.50;;;;;;5072503;28;20024;-74
2021/01/21 12:51:50;;;;;;;2.55;0.60;;;11.90;49.20;;;;;;5071714;28;20514;-75
2021/01/21 12:54:15;;;;;;;1.33;0.45;;;11.40;51.30;;;;;;5073833;28;20032;-75
2021/01/21 12:56:41;;;;;;;0.75;0.20;;;11.00;53.00;;;;;;5074052;28;20032;-74
2021/01/21 12:59:07;;;;;;;0.40;0.28;;;11.00;54.00;;;;;;5074884;28;20083;-74
2021/01/21 13:01:32;;;;;;;0.95;0.60;;;10.90;54.60;;;;;;5076661;28;20053;-73